Terminal Aerodrome Forecast
Issued by NWS

Home | Current Version | Previous Version | Text Only | Print | Product List | Glossary On
Versions: 1 2 3 4 5 6 7 8 9 10 11 12 13
000
FTUS46 KMFR 281742
TAFOTH
TAF
KOTH 281742Z 2818/2918 VRB06KT P6SM FEW025 SCT035 BKN050
     FM282000 32008KT P6SM FEW035 BKN050
     FM291000 31006KT P6SM VCSH BKN025 OVC035
     FM291500 VRB05KT P6SM -SHRA BKN015 OVC025=

USA.gov is the U.S. government's official web portal to all federal, state and local government web resources and services.